aviador You're here:

KDTS Decoded Metar

DESTIN in FL, USA
Report Time2017-08-22 21:53:00
UTC Time2017-08-22 22:28:51
Flight Rules vfr VFR
Wind230° at 03 kt
W.Decomp.*RWY 32: 0.1 kt HW 3 kt LCW
W.Rank230° ranks 18
Current wind is below 230° avg. (6.1)
Visibility9999 m
Phenomena:N/A
Clouds:N/A
Expected CloudBase > 3,200 ft AGL from Temp-Dew spread
CeilingNone
Temp32°C (ISA +17)
Dew Point24°C (63% RH)
Heat Index38.0°C
QNH1016 hPa
Density Alt2,251 ft
Elevation16 ft
Report Wrong Elevation
Raw Report
KDTS 222153Z AUTO 23003KT 10SM CLR 32/24 A3001 RMK AO2 SLP163
T03170239=

Extra information for KDTS:More info

Metar Taf Metar & Taf Last 4 Metars F.Rules Stats Wind Profile Meteogram Temp Stats Airport Information Weather charts Add Link Nearby VenuesMetar ALERT Operation Metar Decoded Social comments

AIRNAV info for KDTS